This is the latest recevied weather packets stored in our database for station/object CYQR. If no packets are shown the sender has not sent any weather packets the latest 1 day(s).
| Time | Temp. | Humidity | Pressure | Rain* | Wind** | Luminosity | Snow |
|---|---|---|---|---|---|---|---|
| 1778102597 | 10° C | 27% | 1012.9 hPa | - | - | - | - |
| 1778101999 | 10° C | 27% | 1012.9 hPa | - | - | - | - |
| 1778101403 | 8.89° C | 31% | 1013.5 hPa | - | - | - | - |
| 1778100199 | 8.89° C | 31% | 1013.5 hPa | - | - | - | - |
| 1778098398 | 8.89° C | 31% | 1013.5 hPa | - | - | - | - |
| 1778097800 | 8.89° C | 31% | 1014.2 hPa | - | - | - | - |
| 1778095999 | 8.89° C | 31% | 1014.2 hPa | - | - | - | - |
| 1778092404 | 7.78° C | 33% | 1014.9 hPa | - | - | - | - |
| 1778091803 | 7.78° C | 33% | 1014.9 hPa | - | - | - | - |
| 1778090724 | 6.67° C | 36% | 1015.6 hPa | - | - | - | - |
| 1778089999 | 6.67° C | 36% | 1015.6 hPa | - | - | - | - |
| 1778089400 | 6.67° C | 36% | 1015.6 hPa | - | - | - | - |
| 1778087002 | 5.56° C | 41% | 1016.3 hPa | - | - | - | - |
| 1778086405 | 5.56° C | 41% | 1016.3 hPa | - | - | - | - |
| 1778085801 | 5.56° C | 41% | 1016.3 hPa | - | - | - | - |
| 1778085203 | 5.56° C | 41% | 1016.3 hPa | - | - | - | - |
| 1778084002 | 5.56° C | 41% | 1016.3 hPa | - | - | - | - |
| 1778081601 | 3.89° C | 51% | 1017.3 hPa | - | - | - | - |
| 1778079200 | 0.56° C | 64% | 1017.6 hPa | - | - | - | - |
| 1778078001 | 0.56° C | 64% | 1017.6 hPa | - | - | - | - |
| 1778076199 | -2.22° C | 79% | 1017.9 hPa | - | - | - | - |
| 1778074998 | -2.22° C | 79% | 1017.9 hPa | - | - | - | - |
| 1778074396 | -2.22° C | 79% | 1017.9 hPa | - | - | - | - |
| 1778070798 | -7.22° C | 85% | 1017.6 hPa | - | - | - | - |
| 1778068999 | -6.11° C | 85% | 1017.9 hPa | - | - | - | - |
* Rain since midnight (hover to see other rain measurements)
** Current wind speed in m/s (hover to see current wind gust speed)